sensor_id;sensor_type;location;lat;lon;timestamp;temperature;humidity
60234;DHT22;49514;43.538;-5.708;2022-08-19T00:01:46;19.00;99.90
60234;DHT22;49514;43.538;-5.708;2022-08-19T00:04:15;19.00;99.90
60234;DHT22;49514;43.538;-5.708;2022-08-19T00:06:43;19.00;99.90
60234;DHT22;49514;43.538;-5.708;2022-08-19T00:09:12;19.00;99.90
60234;DHT22;49514;43.538;-5.708;2022-08-19T00:11:42;19.00;99.90
60234;DHT22;49514;43.538;-5.708;2022-08-19T00:14:12;18.90;99.90
60234;DHT22;49514;43.538;-5.708;2022-08-19T00:16:41;18.90;99.90
60234;DHT22;49514;43.538;-5.708;2022-08-19T00:19:08;18.90;99.90
60234;DHT22;49514;43.538;-5.708;2022-08-19T00:21:35;18.80;99.90
60234;DHT22;49514;43.538;-5.708;2022-08-19T00:24:11;18.70;99.90
60234;DHT22;49514;43.538;-5.708;2022-08-19T00:26:38;18.70;99.90
60234;DHT22;49514;43.538;-5.708;2022-08-19T00:29:06;18.70;99.90
60234;DHT22;49514;43.538;-5.708;2022-08-19T00:31:34;18.70;99.90
60234;DHT22;49514;43.538;-5.708;2022-08-19T00:34:01;18.60;99.90
60234;DHT22;49514;43.538;-5.708;2022-08-19T00:36:27;18.50;99.90
60234;DHT22;49514;43.538;-5.708;2022-08-19T00:38:55;18.50;99.90
60234;DHT22;49514;43.538;-5.708;2022-08-19T00:41:24;18.50;99.90
60234;DHT22;49514;43.538;-5.708;2022-08-19T00:44:09;18.50;99.90
60234;DHT22;49514;43.538;-5.708;2022-08-19T00:46:38;18.50;99.90
60234;DHT22;49514;43.538;-5.708;2022-08-19T00:49:35;18.50;99.90
60234;DHT22;49514;43.538;-5.708;2022-08-19T00:52:09;18.50;99.90
60234;DHT22;49514;43.538;-5.708;2022-08-19T00:54:39;18.60;99.90
60234;DHT22;49514;43.538;-5.708;2022-08-19T00:57:09;18.60;99.90
60234;DHT22;49514;43.538;-5.708;2022-08-19T00:59:40;18.60;99.90
60234;DHT22;49514;43.538;-5.708;2022-08-19T01:02:08;18.60;99.90
60234;DHT22;49514;43.538;-5.708;2022-08-19T01:04:35;18.50;99.90
60234;DHT22;49514;43.538;-5.708;2022-08-19T01:07:02;18.50;99.90
60234;DHT22;49514;43.538;-5.708;2022-08-19T01:09:29;18.40;99.90
60234;DHT22;49514;43.538;-5.708;2022-08-19T01:11:56;18.30;99.90
60234;DHT22;49514;43.538;-5.708;2022-08-19T01:14:23;18.20;99.90
60234;DHT22;49514;43.538;-5.708;2022-08-19T01:16:51;18.20;99.90
60234;DHT22;49514;43.538;-5.708;2022-08-19T01:19:28;18.20;99.90
60234;DHT22;49514;43.538;-5.708;2022-08-19T01:22:03;18.20;99.90
60234;DHT22;49514;43.538;-5.708;2022-08-19T01:24:31;18.20;99.90
60234;DHT22;49514;43.538;-5.708;2022-08-19T01:26:58;18.10;99.90
60234;DHT22;49514;43.538;-5.708;2022-08-19T01:29:25;18.10;99.90
60234;DHT22;49514;43.538;-5.708;2022-08-19T01:31:52;18.00;99.90
60234;DHT22;49514;43.538;-5.708;2022-08-19T01:34:19;18.00;99.90
60234;DHT22;49514;43.538;-5.708;2022-08-19T01:36:47;18.00;99.90
60234;DHT22;49514;43.538;-5.708;2022-08-19T01:39:19;18.00;99.90
60234;DHT22;49514;43.538;-5.708;2022-08-19T01:41:47;18.00;99.90
60234;DHT22;49514;43.538;-5.708;2022-08-19T01:44:14;17.90;99.90
60234;DHT22;49514;43.538;-5.708;2022-08-19T01:46:43;18.00;99.90
60234;DHT22;49514;43.538;-5.708;2022-08-19T01:49:10;17.90;99.90
60234;DHT22;49514;43.538;-5.708;2022-08-19T01:51:37;17.90;99.90
60234;DHT22;49514;43.538;-5.708;2022-08-19T01:54:04;17.80;99.90
60234;DHT22;49514;43.538;-5.708;2022-08-19T01:56:31;17.70;99.90
60234;DHT22;49514;43.538;-5.708;2022-08-19T01:59:08;17.70;99.90
60234;DHT22;49514;43.538;-5.708;2022-08-19T02:01:36;17.60;99.90
60234;DHT22;49514;43.538;-5.708;2022-08-19T02:04:03;17.60;99.90
60234;DHT22;49514;43.538;-5.708;2022-08-19T02:06:31;17.50;99.90
60234;DHT22;49514;43.538;-5.708;2022-08-19T02:08:59;17.50;99.90
60234;DHT22;49514;43.538;-5.708;2022-08-19T02:11:32;17.40;99.90
60234;DHT22;49514;43.538;-5.708;2022-08-19T02:14:02;17.40;99.90
60234;DHT22;49514;43.538;-5.708;2022-08-19T02:16:29;17.40;99.90
60234;DHT22;49514;43.538;-5.708;2022-08-19T02:18:57;17.40;99.90
60234;DHT22;49514;43.538;-5.708;2022-08-19T02:21:28;17.30;99.90
60234;DHT22;49514;43.538;-5.708;2022-08-19T02:23:54;17.30;99.90
60234;DHT22;49514;43.538;-5.708;2022-08-19T02:26:22;17.20;99.90
60234;DHT22;49514;43.538;-5.708;2022-08-19T02:28:48;17.20;99.90
60234;DHT22;49514;43.538;-5.708;2022-08-19T02:31:17;17.20;99.90
60234;DHT22;49514;43.538;-5.708;2022-08-19T02:33:45;17.10;99.90
60234;DHT22;49514;43.538;-5.708;2022-08-19T02:36:14;17.10;99.90
60234;DHT22;49514;43.538;-5.708;2022-08-19T02:38:42;17.10;99.90
60234;DHT22;49514;43.538;-5.708;2022-08-19T02:41:28;17.10;99.90
60234;DHT22;49514;43.538;-5.708;2022-08-19T02:43:55;17.10;99.90
60234;DHT22;49514;43.538;-5.708;2022-08-19T02:46:30;17.10;99.90
60234;DHT22;49514;43.538;-5.708;2022-08-19T02:49:00;17.10;99.90
60234;DHT22;49514;43.538;-5.708;2022-08-19T02:51:34;17.10;99.90
60234;DHT22;49514;43.538;-5.708;2022-08-19T02:54:02;17.10;99.90
60234;DHT22;49514;43.538;-5.708;2022-08-19T02:56:30;17.10;99.90
60234;DHT22;49514;43.538;-5.708;2022-08-19T02:58:57;17.10;99.90
60234;DHT22;49514;43.538;-5.708;2022-08-19T03:01:29;17.10;99.90
60234;DHT22;49514;43.538;-5.708;2022-08-19T03:03:57;17.10;99.90
60234;DHT22;49514;43.538;-5.708;2022-08-19T03:06:24;17.00;99.90
60234;DHT22;49514;43.538;-5.708;2022-08-19T03:08:51;17.00;99.90
60234;DHT22;49514;43.538;-5.708;2022-08-19T03:11:23;17.00;99.90
60234;DHT22;49514;43.538;-5.708;2022-08-19T03:13:51;17.00;99.90
60234;DHT22;49514;43.538;-5.708;2022-08-19T03:16:21;17.00;99.90
60234;DHT22;49514;43.538;-5.708;2022-08-19T03:18:48;17.10;99.90
60234;DHT22;49514;43.538;-5.708;2022-08-19T03:21:22;17.00;99.90
60234;DHT22;49514;43.538;-5.708;2022-08-19T03:23:58;17.00;99.90
60234;DHT22;49514;43.538;-5.708;2022-08-19T03:26:25;17.00;99.90
60234;DHT22;49514;43.538;-5.708;2022-08-19T03:28:52;17.00;99.90
60234;DHT22;49514;43.538;-5.708;2022-08-19T03:33:50;16.90;99.90
60234;DHT22;49514;43.538;-5.708;2022-08-19T03:36:22;16.90;99.90
60234;DHT22;49514;43.538;-5.708;2022-08-19T03:38:53;16.90;99.90
60234;DHT22;49514;43.538;-5.708;2022-08-19T03:41:24;16.80;99.90
60234;DHT22;49514;43.538;-5.708;2022-08-19T03:43:52;16.80;99.90
60234;DHT22;49514;43.538;-5.708;2022-08-19T03:46:24;16.80;99.90
60234;DHT22;49514;43.538;-5.708;2022-08-19T03:48:56;16.70;99.90
60234;DHT22;49514;43.538;-5.708;2022-08-19T03:51:32;16.70;99.90
60234;DHT22;49514;43.538;-5.708;2022-08-19T03:54:01;16.70;99.90
60234;DHT22;49514;43.538;-5.708;2022-08-19T03:56:28;16.60;99.90
60234;DHT22;49514;43.538;-5.708;2022-08-19T03:58:57;16.70;99.90
60234;DHT22;49514;43.538;-5.708;2022-08-19T04:01:27;16.60;99.90
60234;DHT22;49514;43.538;-5.708;2022-08-19T04:03:56;16.60;99.90
60234;DHT22;49514;43.538;-5.708;2022-08-19T04:06:25;16.60;99.90
60234;DHT22;49514;43.538;-5.708;2022-08-19T04:08:54;16.60;99.90
60234;DHT22;49514;43.538;-5.708;2022-08-19T04:11:25;16.70;99.90
60234;DHT22;49514;43.538;-5.708;2022-08-19T04:13:53;16.60;99.90
60234;DHT22;49514;43.538;-5.708;2022-08-19T04:16:24;16.60;99.90
60234;DHT22;49514;43.538;-5.708;2022-08-19T04:18:56;16.60;99.90
60234;DHT22;49514;43.538;-5.708;2022-08-19T04:21:25;16.60;99.90
60234;DHT22;49514;43.538;-5.708;2022-08-19T04:23:53;16.60;99.90
60234;DHT22;49514;43.538;-5.708;2022-08-19T04:26:26;16.60;99.90
60234;DHT22;49514;43.538;-5.708;2022-08-19T04:28:53;16.60;99.90
60234;DHT22;49514;43.538;-5.708;2022-08-19T04:31:26;16.60;99.90
60234;DHT22;49514;43.538;-5.708;2022-08-19T04:33:55;16.60;99.90
60234;DHT22;49514;43.538;-5.708;2022-08-19T04:36:32;16.60;99.90
60234;DHT22;49514;43.538;-5.708;2022-08-19T04:39:04;16.60;99.90
60234;DHT22;49514;43.538;-5.708;2022-08-19T04:41:33;16.60;99.90
60234;DHT22;49514;43.538;-5.708;2022-08-19T04:44:19;16.60;99.90
60234;DHT22;49514;43.538;-5.708;2022-08-19T04:46:47;16.60;99.90
60234;DHT22;49514;43.538;-5.708;2022-08-19T04:49:15;16.60;99.90
60234;DHT22;49514;43.538;-5.708;2022-08-19T04:51:45;16.60;99.90
60234;DHT22;49514;43.538;-5.708;2022-08-19T04:54:14;16.60;99.90
60234;DHT22;49514;43.538;-5.708;2022-08-19T04:56:41;16.60;99.90
60234;DHT22;49514;43.538;-5.708;2022-08-19T04:59:08;16.60;99.90
60234;DHT22;49514;43.538;-5.708;2022-08-19T05:01:35;16.60;99.90
60234;DHT22;49514;43.538;-5.708;2022-08-19T05:04:05;16.60;99.90
60234;DHT22;49514;43.538;-5.708;2022-08-19T05:06:33;16.60;99.90
60234;DHT22;49514;43.538;-5.708;2022-08-19T05:09:03;16.60;99.90
60234;DHT22;49514;43.538;-5.708;2022-08-19T05:11:36;16.50;99.90
60234;DHT22;49514;43.538;-5.708;2022-08-19T05:14:06;16.50;99.90
60234;DHT22;49514;43.538;-5.708;2022-08-19T05:16:33;16.50;99.90
60234;DHT22;49514;43.538;-5.708;2022-08-19T05:18:59;16.40;99.90
60234;DHT22;49514;43.538;-5.708;2022-08-19T05:21:45;16.40;99.90
60234;DHT22;49514;43.538;-5.708;2022-08-19T05:24:31;16.40;99.90
60234;DHT22;49514;43.538;-5.708;2022-08-19T05:27:00;16.30;99.90
60234;DHT22;49514;43.538;-5.708;2022-08-19T05:29:29;16.30;99.90
60234;DHT22;49514;43.538;-5.708;2022-08-19T05:31:58;16.30;99.90
60234;DHT22;49514;43.538;-5.708;2022-08-19T05:34:26;16.30;99.90
60234;DHT22;49514;43.538;-5.708;2022-08-19T05:36:56;16.30;99.90
60234;DHT22;49514;43.538;-5.708;2022-08-19T05:39:26;16.30;99.90
60234;DHT22;49514;43.538;-5.708;2022-08-19T05:41:56;16.30;99.90
60234;DHT22;49514;43.538;-5.708;2022-08-19T05:44:29;16.30;99.90
60234;DHT22;49514;43.538;-5.708;2022-08-19T05:47:01;16.40;99.90
60234;DHT22;49514;43.538;-5.708;2022-08-19T05:49:29;16.40;99.90
60234;DHT22;49514;43.538;-5.708;2022-08-19T05:51:56;16.40;99.90
60234;DHT22;49514;43.538;-5.708;2022-08-19T05:54:24;16.50;99.90
60234;DHT22;49514;43.538;-5.708;2022-08-19T05:56:51;16.50;99.90
60234;DHT22;49514;43.538;-5.708;2022-08-19T05:59:19;16.50;99.90
60234;DHT22;49514;43.538;-5.708;2022-08-19T06:01:50;16.60;99.90
60234;DHT22;49514;43.538;-5.708;2022-08-19T06:04:18;16.60;99.90
60234;DHT22;49514;43.538;-5.708;2022-08-19T06:06:47;16.70;99.90
60234;DHT22;49514;43.538;-5.708;2022-08-19T06:09:15;16.70;99.90
60234;DHT22;49514;43.538;-5.708;2022-08-19T06:11:44;16.70;99.90
60234;DHT22;49514;43.538;-5.708;2022-08-19T06:14:16;16.80;99.90
60234;DHT22;49514;43.538;-5.708;2022-08-19T06:16:45;16.80;99.90
60234;DHT22;49514;43.538;-5.708;2022-08-19T06:19:14;16.80;99.90
60234;DHT22;49514;43.538;-5.708;2022-08-19T06:21:45;16.80;99.90
60234;DHT22;49514;43.538;-5.708;2022-08-19T06:24:15;16.90;99.90
60234;DHT22;49514;43.538;-5.708;2022-08-19T06:26:44;16.90;99.90
60234;DHT22;49514;43.538;-5.708;2022-08-19T06:29:12;17.00;99.90
60234;DHT22;49514;43.538;-5.708;2022-08-19T06:31:44;17.00;99.90
60234;DHT22;49514;43.538;-5.708;2022-08-19T06:34:11;17.10;99.90
60234;DHT22;49514;43.538;-5.708;2022-08-19T06:36:41;17.20;99.90
60234;DHT22;49514;43.538;-5.708;2022-08-19T06:39:17;17.20;99.90
60234;DHT22;49514;43.538;-5.708;2022-08-19T06:41:47;17.30;99.90
60234;DHT22;49514;43.538;-5.708;2022-08-19T06:44:19;17.30;99.90
60234;DHT22;49514;43.538;-5.708;2022-08-19T06:46:46;17.30;99.90
60234;DHT22;49514;43.538;-5.708;2022-08-19T06:49:16;17.30;99.90
60234;DHT22;49514;43.538;-5.708;2022-08-19T06:51:44;17.30;99.90
60234;DHT22;49514;43.538;-5.708;2022-08-19T06:54:10;17.40;99.90
60234;DHT22;49514;43.538;-5.708;2022-08-19T06:56:37;17.40;99.90
60234;DHT22;49514;43.538;-5.708;2022-08-19T06:59:05;17.40;99.90
60234;DHT22;49514;43.538;-5.708;2022-08-19T07:01:39;17.50;99.90
60234;DHT22;49514;43.538;-5.708;2022-08-19T07:04:07;17.50;99.90
60234;DHT22;49514;43.538;-5.708;2022-08-19T07:06:35;17.50;99.90
60234;DHT22;49514;43.538;-5.708;2022-08-19T07:09:05;17.50;99.90
60234;DHT22;49514;43.538;-5.708;2022-08-19T07:11:31;17.40;99.90
60234;DHT22;49514;43.538;-5.708;2022-08-19T07:13:59;17.40;99.90
60234;DHT22;49514;43.538;-5.708;2022-08-19T07:16:25;17.40;99.90
60234;DHT22;49514;43.538;-5.708;2022-08-19T07:18:52;17.40;99.90
60234;DHT22;49514;43.538;-5.708;2022-08-19T07:21:20;17.40;99.90
60234;DHT22;49514;43.538;-5.708;2022-08-19T07:23:47;17.30;99.90
60234;DHT22;49514;43.538;-5.708;2022-08-19T07:26:18;17.30;99.90
60234;DHT22;49514;43.538;-5.708;2022-08-19T07:28:45;17.40;99.90
60234;DHT22;49514;43.538;-5.708;2022-08-19T07:31:13;17.40;99.90
60234;DHT22;49514;43.538;-5.708;2022-08-19T07:33:41;17.50;99.90
60234;DHT22;49514;43.538;-5.708;2022-08-19T07:36:09;17.40;99.90
60234;DHT22;49514;43.538;-5.708;2022-08-19T07:38:40;17.50;99.90
60234;DHT22;49514;43.538;-5.708;2022-08-19T07:41:08;17.50;99.90
60234;DHT22;49514;43.538;-5.708;2022-08-19T07:43:35;17.50;99.90
60234;DHT22;49514;43.538;-5.708;2022-08-19T07:46:02;17.60;99.90
60234;DHT22;49514;43.538;-5.708;2022-08-19T07:48:28;17.60;99.90
60234;DHT22;49514;43.538;-5.708;2022-08-19T07:50:56;17.70;99.90
60234;DHT22;49514;43.538;-5.708;2022-08-19T07:53:23;17.70;99.90
60234;DHT22;49514;43.538;-5.708;2022-08-19T07:55:50;17.70;99.90
60234;DHT22;49514;43.538;-5.708;2022-08-19T07:58:18;17.80;99.90
60234;DHT22;49514;43.538;-5.708;2022-08-19T08:00:45;17.90;99.90
60234;DHT22;49514;43.538;-5.708;2022-08-19T08:03:12;17.90;99.90
60234;DHT22;49514;43.538;-5.708;2022-08-19T08:05:39;18.00;99.90
60234;DHT22;49514;43.538;-5.708;2022-08-19T08:08:24;18.00;99.90
60234;DHT22;49514;43.538;-5.708;2022-08-19T08:11:10;18.10;99.90
60234;DHT22;49514;43.538;-5.708;2022-08-19T08:13:37;18.20;99.90
60234;DHT22;49514;43.538;-5.708;2022-08-19T08:16:03;18.20;99.90
60234;DHT22;49514;43.538;-5.708;2022-08-19T08:18:30;18.20;99.90
60234;DHT22;49514;43.538;-5.708;2022-08-19T08:20:57;18.30;99.90
60234;DHT22;49514;43.538;-5.708;2022-08-19T08:23:24;18.30;99.90
60234;DHT22;49514;43.538;-5.708;2022-08-19T08:25:56;18.40;99.90
60234;DHT22;49514;43.538;-5.708;2022-08-19T08:28:23;18.40;99.90
60234;DHT22;49514;43.538;-5.708;2022-08-19T08:30:50;18.50;99.90
60234;DHT22;49514;43.538;-5.708;2022-08-19T08:33:18;18.50;99.90
60234;DHT22;49514;43.538;-5.708;2022-08-19T08:35:45;18.50;99.90
60234;DHT22;49514;43.538;-5.708;2022-08-19T08:38:11;18.50;99.90
60234;DHT22;49514;43.538;-5.708;2022-08-19T08:45:34;18.70;99.90
60234;DHT22;49514;43.538;-5.708;2022-08-19T08:48:04;18.70;99.90
60234;DHT22;49514;43.538;-5.708;2022-08-19T08:50:34;18.80;99.90
60234;DHT22;49514;43.538;-5.708;2022-08-19T08:53:03;18.80;99.90
60234;DHT22;49514;43.538;-5.708;2022-08-19T08:55:31;18.80;99.90
60234;DHT22;49514;43.538;-5.708;2022-08-19T08:57:59;18.90;99.90
60234;DHT22;49514;43.538;-5.708;2022-08-19T09:00:28;18.90;99.90
60234;DHT22;49514;43.538;-5.708;2022-08-19T09:02:56;19.10;99.90
60234;DHT22;49514;43.538;-5.708;2022-08-19T09:05:25;19.00;99.90
60234;DHT22;49514;43.538;-5.708;2022-08-19T09:08:04;19.10;99.90
60234;DHT22;49514;43.538;-5.708;2022-08-19T09:15:36;19.20;99.90
60234;DHT22;49514;43.538;-5.708;2022-08-19T09:18:04;19.20;99.90
60234;DHT22;49514;43.538;-5.708;2022-08-19T09:20:32;19.30;99.90
60234;DHT22;49514;43.538;-5.708;2022-08-19T09:22:59;19.30;99.90
60234;DHT22;49514;43.538;-5.708;2022-08-19T09:25:25;19.40;99.90
60234;DHT22;49514;43.538;-5.708;2022-08-19T09:27:52;19.40;99.90
60234;DHT22;49514;43.538;-5.708;2022-08-19T09:30:30;19.40;99.90
60234;DHT22;49514;43.538;-5.708;2022-08-19T09:32:57;19.50;99.90
60234;DHT22;49514;43.538;-5.708;2022-08-19T09:35:24;19.50;99.90
60234;DHT22;49514;43.538;-5.708;2022-08-19T09:37:51;19.50;99.90
60234;DHT22;49514;43.538;-5.708;2022-08-19T09:40:18;19.60;99.90
60234;DHT22;49514;43.538;-5.708;2022-08-19T09:45:17;19.60;99.90
60234;DHT22;49514;43.538;-5.708;2022-08-19T09:47:48;19.60;99.90
60234;DHT22;49514;43.538;-5.708;2022-08-19T09:50:15;19.60;99.90
60234;DHT22;49514;43.538;-5.708;2022-08-19T09:52:41;19.60;99.90
60234;DHT22;49514;43.538;-5.708;2022-08-19T09:55:08;19.60;99.90
60234;DHT22;49514;43.538;-5.708;2022-08-19T09:57:35;19.70;99.90
60234;DHT22;49514;43.538;-5.708;2022-08-19T10:00:06;19.70;99.90
60234;DHT22;49514;43.538;-5.708;2022-08-19T10:02:34;19.70;99.90
60234;DHT22;49514;43.538;-5.708;2022-08-19T10:05:00;19.70;99.90
60234;DHT22;49514;43.538;-5.708;2022-08-19T10:10:26;19.80;99.90
60234;DHT22;49514;43.538;-5.708;2022-08-19T10:12:53;19.80;99.90
60234;DHT22;49514;43.538;-5.708;2022-08-19T10:15:21;19.80;99.90
60234;DHT22;49514;43.538;-5.708;2022-08-19T10:17:47;19.80;99.90
60234;DHT22;49514;43.538;-5.708;2022-08-19T10:20:14;19.80;99.90
60234;DHT22;49514;43.538;-5.708;2022-08-19T10:22:40;19.70;99.90
60234;DHT22;49514;43.538;-5.708;2022-08-19T10:25:08;19.80;99.90
60234;DHT22;49514;43.538;-5.708;2022-08-19T10:27:34;19.80;99.90
60234;DHT22;49514;43.538;-5.708;2022-08-19T10:30:01;19.80;99.90
60234;DHT22;49514;43.538;-5.708;2022-08-19T10:32:27;19.80;99.90
60234;DHT22;49514;43.538;-5.708;2022-08-19T10:34:55;19.90;99.90
60234;DHT22;49514;43.538;-5.708;2022-08-19T10:37:22;19.90;99.90
60234;DHT22;49514;43.538;-5.708;2022-08-19T10:39:48;19.90;99.90
60234;DHT22;49514;43.538;-5.708;2022-08-19T10:42:15;19.90;99.90
60234;DHT22;49514;43.538;-5.708;2022-08-19T10:44:43;20.00;99.90
60234;DHT22;49514;43.538;-5.708;2022-08-19T10:47:10;20.00;99.90
60234;DHT22;49514;43.538;-5.708;2022-08-19T10:49:37;20.10;99.90
60234;DHT22;49514;43.538;-5.708;2022-08-19T10:52:24;20.10;99.90
60234;DHT22;49514;43.538;-5.708;2022-08-19T10:55:01;20.10;99.90
60234;DHT22;49514;43.538;-5.708;2022-08-19T10:57:47;20.20;99.90
60234;DHT22;49514;43.538;-5.708;2022-08-19T11:00:14;20.20;99.90
60234;DHT22;49514;43.538;-5.708;2022-08-19T11:02:41;20.20;99.90
60234;DHT22;49514;43.538;-5.708;2022-08-19T11:05:09;20.30;99.90
60234;DHT22;49514;43.538;-5.708;2022-08-19T11:07:39;20.30;99.90
60234;DHT22;49514;43.538;-5.708;2022-08-19T11:10:08;20.30;99.90
60234;DHT22;49514;43.538;-5.708;2022-08-19T11:12:39;20.30;99.90
60234;DHT22;49514;43.538;-5.708;2022-08-19T11:15:08;20.30;99.90
60234;DHT22;49514;43.538;-5.708;2022-08-19T11:17:40;20.40;99.90
60234;DHT22;49514;43.538;-5.708;2022-08-19T11:20:08;20.40;99.90
60234;DHT22;49514;43.538;-5.708;2022-08-19T11:22:35;20.50;99.90
60234;DHT22;49514;43.538;-5.708;2022-08-19T11:25:02;20.40;99.90
60234;DHT22;49514;43.538;-5.708;2022-08-19T11:27:30;20.50;99.90
60234;DHT22;49514;43.538;-5.708;2022-08-19T11:29:56;20.50;99.90
60234;DHT22;49514;43.538;-5.708;2022-08-19T11:32:23;20.50;99.90
60234;DHT22;49514;43.538;-5.708;2022-08-19T11:34:50;20.60;99.90
60234;DHT22;49514;43.538;-5.708;2022-08-19T11:37:16;20.70;99.90
60234;DHT22;49514;43.538;-5.708;2022-08-19T11:39:43;20.80;99.90
60234;DHT22;49514;43.538;-5.708;2022-08-19T11:42:10;20.80;99.90
60234;DHT22;49514;43.538;-5.708;2022-08-19T11:44:55;20.90;99.90
60234;DHT22;49514;43.538;-5.708;2022-08-19T11:47:22;20.90;99.90
60234;DHT22;49514;43.538;-5.708;2022-08-19T11:49:49;21.00;99.90
60234;DHT22;49514;43.538;-5.708;2022-08-19T11:52:16;21.00;99.90
60234;DHT22;49514;43.538;-5.708;2022-08-19T11:54:43;21.10;99.90
60234;DHT22;49514;43.538;-5.708;2022-08-19T11:57:09;21.20;99.90
60234;DHT22;49514;43.538;-5.708;2022-08-19T11:59:36;21.30;99.90
60234;DHT22;49514;43.538;-5.708;2022-08-19T12:02:03;21.30;99.90
60234;DHT22;49514;43.538;-5.708;2022-08-19T12:04:29;21.40;99.90
60234;DHT22;49514;43.538;-5.708;2022-08-19T12:06:56;21.40;99.90
60234;DHT22;49514;43.538;-5.708;2022-08-19T12:09:23;21.50;99.90
60234;DHT22;49514;43.538;-5.708;2022-08-19T12:11:50;21.60;99.90
60234;DHT22;49514;43.538;-5.708;2022-08-19T12:14:17;21.60;99.90
60234;DHT22;49514;43.538;-5.708;2022-08-19T12:16:45;21.70;99.90
60234;DHT22;49514;43.538;-5.708;2022-08-19T12:19:12;21.90;99.90
60234;DHT22;49514;43.538;-5.708;2022-08-19T12:21:39;22.00;99.90
60234;DHT22;49514;43.538;-5.708;2022-08-19T12:24:07;22.20;99.90
60234;DHT22;49514;43.538;-5.708;2022-08-19T12:26:34;22.30;99.90
60234;DHT22;49514;43.538;-5.708;2022-08-19T12:29:01;22.50;99.90
60234;DHT22;49514;43.538;-5.708;2022-08-19T12:31:28;22.60;99.90
60234;DHT22;49514;43.538;-5.708;2022-08-19T12:33:56;22.70;99.90
60234;DHT22;49514;43.538;-5.708;2022-08-19T12:36:23;22.70;99.90
60234;DHT22;49514;43.538;-5.708;2022-08-19T12:38:52;22.90;99.90
60234;DHT22;49514;43.538;-5.708;2022-08-19T12:41:19;23.00;99.90
60234;DHT22;49514;43.538;-5.708;2022-08-19T12:43:48;23.10;99.90
60234;DHT22;49514;43.538;-5.708;2022-08-19T12:46:16;23.30;99.90
60234;DHT22;49514;43.538;-5.708;2022-08-19T12:48:43;23.50;99.90
60234;DHT22;49514;43.538;-5.708;2022-08-19T12:51:16;24.10;99.90
60234;DHT22;49514;43.538;-5.708;2022-08-19T12:56:12;26.20;99.90
60234;DHT22;49514;43.538;-5.708;2022-08-19T12:58:41;27.70;99.90
60234;DHT22;49514;43.538;-5.708;2022-08-19T13:01:12;29.50;99.90
60234;DHT22;49514;43.538;-5.708;2022-08-19T13:03:39;31.00;99.90
60234;DHT22;49514;43.538;-5.708;2022-08-19T13:06:07;32.40;96.50
60234;DHT22;49514;43.538;-5.708;2022-08-19T13:13:43;35.60;97.70
60234;DHT22;49514;43.538;-5.708;2022-08-19T13:16:11;37.60;89.80
60234;DHT22;49514;43.538;-5.708;2022-08-19T13:18:39;39.30;77.40
60234;DHT22;49514;43.538;-5.708;2022-08-19T13:21:09;40.10;75.40
60234;DHT22;49514;43.538;-5.708;2022-08-19T13:28:33;42.30;81.00
60234;DHT22;49514;43.538;-5.708;2022-08-19T13:34:05;43.30;60.70
60234;DHT22;49514;43.538;-5.708;2022-08-19T13:36:35;43.60;62.60
60234;DHT22;49514;43.538;-5.708;2022-08-19T13:39:03;44.50;61.20
60234;DHT22;49514;43.538;-5.708;2022-08-19T13:41:30;45.20;57.20
60234;DHT22;49514;43.538;-5.708;2022-08-19T13:43:57;45.30;59.70
60234;DHT22;49514;43.538;-5.708;2022-08-19T13:46:24;45.70;55.10
60234;DHT22;49514;43.538;-5.708;2022-08-19T13:48:53;45.10;54.80
60234;DHT22;49514;43.538;-5.708;2022-08-19T13:51:20;45.50;56.10
60234;DHT22;49514;43.538;-5.708;2022-08-19T13:53:46;46.00;57.50
60234;DHT22;49514;43.538;-5.708;2022-08-19T13:56:17;46.40;55.80
60234;DHT22;49514;43.538;-5.708;2022-08-19T13:58:45;47.10;52.70
60234;DHT22;49514;43.538;-5.708;2022-08-19T14:01:12;46.90;52.30
60234;DHT22;49514;43.538;-5.708;2022-08-19T14:03:44;48.10;54.40
60234;DHT22;49514;43.538;-5.708;2022-08-19T14:06:11;47.80;51.80
60234;DHT22;49514;43.538;-5.708;2022-08-19T14:08:38;48.30;50.00
60234;DHT22;49514;43.538;-5.708;2022-08-19T14:11:08;49.10;52.30
60234;DHT22;49514;43.538;-5.708;2022-08-19T14:13:35;49.70;51.10
60234;DHT22;49514;43.538;-5.708;2022-08-19T14:16:09;49.30;49.90
60234;DHT22;49514;43.538;-5.708;2022-08-19T14:18:36;50.40;49.50
60234;DHT22;49514;43.538;-5.708;2022-08-19T14:21:03;49.50;49.10
60234;DHT22;49514;43.538;-5.708;2022-08-19T14:23:31;49.50;49.20
60234;DHT22;49514;43.538;-5.708;2022-08-19T14:26:09;51.10;48.10
60234;DHT22;49514;43.538;-5.708;2022-08-19T14:28:38;51.50;48.40
60234;DHT22;49514;43.538;-5.708;2022-08-19T14:31:08;51.20;46.10
60234;DHT22;49514;43.538;-5.708;2022-08-19T14:33:34;51.40;44.70
60234;DHT22;49514;43.538;-5.708;2022-08-19T14:36:02;50.00;46.70
60234;DHT22;49514;43.538;-5.708;2022-08-19T14:38:29;49.80;45.20
60234;DHT22;49514;43.538;-5.708;2022-08-19T14:41:16;50.80;45.70
60234;DHT22;49514;43.538;-5.708;2022-08-19T14:43:45;51.50;46.70
60234;DHT22;49514;43.538;-5.708;2022-08-19T14:46:19;51.00;44.30
60234;DHT22;49514;43.538;-5.708;2022-08-19T14:48:47;51.60;44.70
60234;DHT22;49514;43.538;-5.708;2022-08-19T14:51:15;50.70;44.70
60234;DHT22;49514;43.538;-5.708;2022-08-19T14:56:16;51.40;44.80
60234;DHT22;49514;43.538;-5.708;2022-08-19T14:58:44;51.50;43.00
60234;DHT22;49514;43.538;-5.708;2022-08-19T15:01:12;51.30;44.20
60234;DHT22;49514;43.538;-5.708;2022-08-19T15:03:40;51.60;44.70
60234;DHT22;49514;43.538;-5.708;2022-08-19T15:06:08;51.70;44.50
60234;DHT22;49514;43.538;-5.708;2022-08-19T15:08:36;51.90;43.90
60234;DHT22;49514;43.538;-5.708;2022-08-19T15:11:14;51.50;43.80
60234;DHT22;49514;43.538;-5.708;2022-08-19T15:13:43;51.90;48.20
60234;DHT22;49514;43.538;-5.708;2022-08-19T15:16:10;52.10;45.10
60234;DHT22;49514;43.538;-5.708;2022-08-19T15:18:37;52.50;43.50
60234;DHT22;49514;43.538;-5.708;2022-08-19T15:21:04;52.60;43.30
60234;DHT22;49514;43.538;-5.708;2022-08-19T15:23:31;53.10;42.90
60234;DHT22;49514;43.538;-5.708;2022-08-19T15:25:58;52.00;47.00
60234;DHT22;49514;43.538;-5.708;2022-08-19T15:28:25;52.40;44.20
60234;DHT22;49514;43.538;-5.708;2022-08-19T15:30:51;53.20;42.80
60234;DHT22;49514;43.538;-5.708;2022-08-19T15:33:19;53.10;42.80
60234;DHT22;49514;43.538;-5.708;2022-08-19T15:35:47;52.90;44.60
60234;DHT22;49514;43.538;-5.708;2022-08-19T15:38:17;53.00;41.30
60234;DHT22;49514;43.538;-5.708;2022-08-19T15:40:48;53.20;43.90
60234;DHT22;49514;43.538;-5.708;2022-08-19T15:43:17;52.90;42.70
60234;DHT22;49514;43.538;-5.708;2022-08-19T15:45:44;51.90;42.60
60234;DHT22;49514;43.538;-5.708;2022-08-19T15:48:11;52.00;42.50
60234;DHT22;49514;43.538;-5.708;2022-08-19T15:50:38;52.70;42.00
60234;DHT22;49514;43.538;-5.708;2022-08-19T15:53:08;52.30;42.90
60234;DHT22;49514;43.538;-5.708;2022-08-19T15:58:09;52.80;40.70
60234;DHT22;49514;43.538;-5.708;2022-08-19T16:00:59;53.30;41.10
60234;DHT22;49514;43.538;-5.708;2022-08-19T16:03:44;53.20;40.50
60234;DHT22;49514;43.538;-5.708;2022-08-19T16:06:29;52.80;40.70